Time;durP1;ratioP1;P1;durP2;ratioP2;P2;SDS_P1;SDS_P2;PMS_P1;PMS_P2;Temp;Humidity;BMP_temperature;BMP_pressure;BME280_temperature;BME280_humidity;BME280_pressure;Samples;Min_cycle;Max_cycle;Signal;HPM_P1;HPM_P2
2022/07/13 00:00:46;;;;;;;4.03;2.80;;;;;;;29.49;31.62;101768.44;4987196;28;20034;-80
2022/07/13 00:03:15;;;;;;;4.10;3.00;;;;;;;29.49;31.82;101763.72;4986037;28;20122;-81
2022/07/13 00:05:44;;;;;;;4.40;3.10;;;;;;;29.44;31.68;101755.06;4988773;28;20465;-81
2022/07/13 00:08:12;;;;;;;4.38;2.80;;;;;;;29.43;31.71;101753.34;4988790;28;20065;-81
2022/07/13 00:10:40;;;;;;;3.60;2.60;;;;;;;29.41;31.34;101760.19;4960653;28;20074;-80
2022/07/13 00:13:08;;;;;;;4.68;2.60;;;;;;;29.40;31.14;101758.50;4971210;28;20253;-80
2022/07/13 00:15:36;;;;;;;3.45;2.38;;;;;;;29.38;31.14;101752.25;4986572;28;20508;-81
2022/07/13 00:18:04;;;;;;;3.67;2.60;;;;;;;29.36;31.20;101751.56;4989711;28;21176;-81
2022/07/13 00:20:34;;;;;;;3.90;2.47;;;;;;;29.38;31.15;101755.03;4989295;28;20141;-81
2022/07/13 00:23:02;;;;;;;4.20;2.88;;;;;;;29.33;31.14;101749.13;4987446;28;20092;-81
2022/07/13 00:25:30;;;;;;;5.90;2.97;;;;;;;29.33;31.08;101754.72;4976316;28;20121;-82
2022/07/13 00:27:58;;;;;;;4.10;2.67;;;;;;;29.32;31.00;101753.03;4971305;28;20514;-81
2022/07/13 00:30:26;;;;;;;4.13;2.80;;;;;;;29.32;31.18;101756.66;4976416;28;20054;-81
2022/07/13 00:32:54;;;;;;;4.32;2.72;;;;;;;29.32;31.01;101758.63;4988019;28;20101;-80
2022/07/13 00:35:23;;;;;;;4.45;2.70;;;;;;;29.30;30.98;101752.38;4987564;28;20042;-80
2022/07/13 00:37:52;;;;;;;4.00;2.90;;;;;;;29.32;30.81;101753.03;4989567;28;20133;-81
2022/07/13 00:40:20;;;;;;;4.13;2.70;;;;;;;29.29;30.84;101759.88;4965453;28;20039;-81
2022/07/13 00:42:48;;;;;;;3.83;2.90;;;;;;;29.26;31.29;101751.88;4987632;28;20556;-81
2022/07/13 00:45:17;;;;;;;3.85;2.70;;;;;;;29.25;31.02;101758.56;4992317;28;20038;-81
2022/07/13 00:47:49;;;;;;;4.03;2.50;;;;;;;29.30;31.37;101755.16;4973323;28;20046;-81
2022/07/13 00:50:18;;;;;;;3.70;2.67;;;;;;;29.26;30.97;101753.81;4971239;28;20536;-81
2022/07/13 00:52:47;;;;;;;4.20;2.83;;;;;;;29.28;31.40;101748.91;4971551;28;20126;-81
2022/07/13 00:55:18;;;;;;;4.25;2.50;;;;;;;29.27;31.21;101739.63;4991509;28;20039;-81
2022/07/13 00:57:45;;;;;;;4.30;2.80;;;;;;;29.24;30.98;101728.00;4973917;28;20343;-81
2022/07/13 01:00:15;;;;;;;4.28;2.60;;;;;;;29.25;30.98;101735.31;4974919;28;20046;-81
2022/07/13 01:02:45;;;;;;;3.55;2.55;;;;;;;29.23;31.20;101727.16;4992924;28;20100;-81
2022/07/13 01:05:14;;;;;;;3.42;2.33;;;;;;;29.22;31.09;101728.22;4980440;28;20136;-81
2022/07/13 01:07:43;;;;;;;3.78;2.72;;;;;;;29.20;31.32;101724.75;4975852;28;20513;-81
2022/07/13 01:10:12;;;;;;;4.00;2.60;;;;;;;29.21;31.09;101725.59;4988246;28;20233;-81
2022/07/13 01:12:42;;;;;;;4.32;2.78;;;;;;;29.20;31.39;101724.75;4991538;28;20401;-81
2022/07/13 01:15:11;;;;;;;4.38;2.70;;;;;;;29.18;31.43;101720.41;4991143;28;20042;-81
2022/07/13 01:17:40;;;;;;;4.40;2.60;;;;;;;29.16;31.29;101712.22;4988754;28;20048;-81
2022/07/13 01:20:09;;;;;;;4.65;2.80;;;;;;;29.17;31.15;101718.69;4991331;28;20137;-81
2022/07/13 01:22:43;;;;;;;4.25;2.55;;;;;;;29.18;31.19;101731.59;4989279;28;20097;-81
2022/07/13 01:25:15;;;;;;;3.50;2.38;;;;;;;29.16;31.27;101729.00;4991001;28;20038;-81
2022/07/13 01:27:44;;;;;;;3.72;2.47;;;;;;;29.12;31.23;101728.56;4993413;28;20096;-81
2022/07/13 01:30:12;;;;;;;4.25;2.75;;;;;;;29.11;31.24;101724.03;4998582;28;20054;-81
2022/07/13 01:32:46;;;;;;;4.10;2.65;;;;;;;29.14;31.38;101726.44;4974385;28;20049;-80
2022/07/13 01:35:15;;;;;;;4.35;2.75;;;;;;;29.10;31.34;101727.03;4977624;28;20517;-80
2022/07/13 01:37:44;;;;;;;4.40;2.55;;;;;;;29.10;31.34;101725.09;4967343;28;20046;-80
2022/07/13 01:40:15;;;;;;;3.72;2.80;;;;;;;29.11;31.27;101718.44;4991818;28;20081;-80
2022/07/13 01:42:44;;;;;;;3.50;2.40;;;;;;;29.09;31.35;101714.97;4996028;28;20094;-81
2022/07/13 01:45:13;;;;;;;3.85;2.50;;;;;;;29.08;31.24;101717.97;4961653;28;20243;-80
2022/07/13 01:47:43;;;;;;;3.45;2.38;;;;;;;29.06;31.06;101707.00;4973877;28;20043;-80
2022/07/13 01:50:15;;;;;;;5.30;2.65;;;;;;;29.04;31.40;101689.56;4973035;28;20073;-80
2022/07/13 01:52:43;;;;;;;4.72;2.30;;;;;;;29.03;31.27;101672.97;4971917;28;20050;-80
2022/07/13 01:55:15;;;;;;;3.47;2.20;;;;;;;29.03;31.33;101676.63;4974491;28;20043;-80
2022/07/13 01:57:44;;;;;;;3.40;2.25;;;;;;;28.97;31.56;101685.84;4989203;28;20145;-81
2022/07/13 02:00:14;;;;;;;3.70;2.45;;;;;;;28.98;31.31;101690.38;4976104;28;20453;-79
2022/07/13 02:02:45;;;;;;;3.47;2.28;;;;;;;28.92;31.71;101687.50;4973752;28;20034;-80
2022/07/13 02:05:17;;;;;;;3.85;2.28;;;;;;;28.90;31.70;101687.72;4973183;28;20524;-80
2022/07/13 02:07:46;;;;;;;5.05;2.25;;;;;;;28.90;31.60;101678.47;4975889;28;20045;-81
2022/07/13 02:10:15;;;;;;;4.55;2.50;;;;;;;28.90;31.74;101682.13;4972227;28;20061;-80
2022/07/13 02:12:44;;;;;;;4.05;2.33;;;;;;;28.87;31.58;101676.06;4973226;28;20697;-80
2022/07/13 02:15:12;;;;;;;3.45;2.55;;;;;;;28.83;31.49;101661.63;4995071;28;20162;-80
2022/07/13 02:17:41;;;;;;;3.42;2.40;;;;;;;28.82;31.62;101653.47;4995213;28;20073;-80
2022/07/13 02:20:09;;;;;;;3.40;2.33;;;;;;;28.80;31.70;101662.06;4989738;28;20050;-81
2022/07/13 02:22:42;;;;;;;3.97;2.28;;;;;;;28.81;31.50;101658.19;4973956;28;20046;-80
2022/07/13 02:25:12;;;;;;;4.22;2.58;;;;;;;28.76;31.55;101660.72;4996674;28;20042;-80
2022/07/13 02:27:42;;;;;;;2.95;2.00;;;;;;;28.77;31.45;101668.03;4973084;28;20093;-81
2022/07/13 02:30:12;;;;;;;4.22;2.28;;;;;;;28.74;31.42;101674.03;4982260;28;20042;-80
2022/07/13 02:32:41;;;;;;;3.17;2.10;;;;;;;28.71;31.48;101672.47;4989470;28;20046;-80
2022/07/13 02:35:09;;;;;;;3.45;2.10;;;;;;;28.70;31.48;101665.16;4973846;28;20707;-80
2022/07/13 02:37:37;;;;;;;4.55;2.50;;;;;;;28.67;31.55;101670.28;4991787;28;20042;-80
2022/07/13 02:40:08;;;;;;;3.78;2.30;;;;;;;28.67;31.36;101673.94;4972102;28;20046;-80
2022/07/13 02:42:36;;;;;;;3.28;2.30;;;;;;;28.64;31.40;101654.78;4990658;28;20397;-80
2022/07/13 02:45:09;;;;;;;4.03;2.22;;;;;;;28.65;31.51;101652.88;4985390;28;20059;-80
2022/07/13 02:47:37;;;;;;;3.88;2.47;;;;;;;28.58;31.19;101652.78;4970925;28;20035;-80
2022/07/13 02:50:06;;;;;;;4.03;2.50;;;;;;;28.55;31.33;101642.03;4987806;28;20070;-80
2022/07/13 02:52:36;;;;;;;3.60;2.30;;;;;;;28.52;31.15;101641.53;4973501;28;20046;-80
2022/07/13 02:55:04;;;;;;;3.45;2.05;;;;;;;28.49;31.26;101641.97;4978692;28;20046;-80
2022/07/13 02:57:35;;;;;;;3.08;2.17;;;;;;;28.44;31.03;101639.75;4989723;28;20034;-80
2022/07/13 03:00:08;;;;;;;3.70;2.40;;;;;;;28.44;31.51;101644.47;4971791;28;20093;-79
2022/07/13 03:02:36;;;;;;;3.60;2.40;;;;;;;28.37;31.39;101644.44;4989788;28;20050;-80
2022/07/13 03:05:07;;;;;;;3.67;2.10;;;;;;;28.36;31.46;101635.19;4971049;28;20069;-80
2022/07/13 03:07:35;;;;;;;3.50;2.13;;;;;;;28.34;31.64;101640.09;4986214;28;20133;-80
2022/07/13 03:10:04;;;;;;;3.17;2.15;;;;;;;28.31;31.36;101637.72;4987416;28;20046;-79
2022/07/13 03:12:33;;;;;;;3.50;2.00;;;;;;;28.28;31.38;101631.66;4986967;28;20044;-80
2022/07/13 03:15:02;;;;;;;3.60;2.28;;;;;;;28.25;31.37;101627.31;4969751;28;20472;-80
2022/07/13 03:17:32;;;;;;;3.03;1.90;;;;;;;28.25;31.39;101630.13;4993757;28;20165;-80
2022/07/13 03:20:05;;;;;;;3.70;2.10;;;;;;;28.19;31.77;101630.91;4988705;28;20050;-80
2022/07/13 03:22:34;;;;;;;2.42;1.85;;;;;;;28.16;31.73;101633.28;4982316;28;20042;-80
2022/07/13 03:25:04;;;;;;;3.55;2.05;;;;;;;28.19;31.66;101638.44;4970677;28;20042;-80
2022/07/13 03:27:32;;;;;;;3.33;2.10;;;;;;;28.17;31.54;101637.75;4974377;28;20134;-80
2022/07/13 03:30:00;;;;;;;3.50;2.10;;;;;;;28.16;31.71;101636.06;4988072;28;20575;-79
2022/07/13 03:32:32;;;;;;;3.05;2.20;;;;;;;28.18;31.66;101636.69;4973472;28;20144;-80
2022/07/13 03:35:00;;;;;;;3.05;2.10;;;;;;;28.15;31.47;101634.28;4972253;28;20070;-80
2022/07/13 03:37:29;;;;;;;2.72;1.98;;;;;;;28.16;31.71;101627.69;4973025;28;20030;-80
2022/07/13 03:39:57;;;;;;;3.58;2.10;;;;;;;28.14;31.48;101630.63;4980778;28;20046;-80
2022/07/13 03:42:26;;;;;;;3.30;2.15;;;;;;;28.14;31.60;101638.16;4973515;28;20053;-79
2022/07/13 03:44:54;;;;;;;3.58;2.30;;;;;;;28.13;31.66;101628.91;4985327;28;20053;-79
2022/07/13 03:47:23;;;;;;;3.30;2.30;;;;;;;28.13;31.75;101631.69;4972595;28;20027;-80
2022/07/13 03:49:52;;;;;;;3.35;2.10;;;;;;;28.15;31.93;101631.50;4987666;28;20050;-80
2022/07/13 03:52:21;;;;;;;2.70;2.00;;;;;;;28.12;31.89;101627.16;4989986;28;20066;-79
2022/07/13 03:54:49;;;;;;;4.00;2.20;;;;;;;28.11;31.50;101630.16;4968388;28;20070;-79
2022/07/13 03:57:18;;;;;;;2.60;1.95;;;;;;;28.11;31.51;101631.03;4972783;28;20038;-80
2022/07/13 03:59:46;;;;;;;3.95;2.50;;;;;;;28.10;31.58;101629.28;4968369;28;20405;-79
2022/07/13 04:02:16;;;;;;;5.05;2.70;;;;;;;28.11;31.66;101624.56;4967690;28;20038;-79
2022/07/13 04:04:45;;;;;;;3.25;2.00;;;;;;;28.09;31.68;101621.09;4970078;28;20058;-79
2022/07/13 04:07:15;;;;;;;2.90;2.10;;;;;;;28.10;31.65;101620.91;4971583;28;20448;-79
2022/07/13 04:09:44;;;;;;;4.28;2.35;;;;;;;28.07;31.66;101621.31;4961775;28;20512;-79
2022/07/13 04:12:12;;;;;;;2.70;1.88;;;;;;;28.07;31.46;101631.63;4989757;28;20047;-79
2022/07/13 04:14:40;;;;;;;3.22;2.20;;;;;;;28.06;31.75;101632.69;4988687;28;20068;-79
2022/07/13 04:17:08;;;;;;;3.63;2.20;;;;;;;28.05;31.65;101629.03;4971439;28;20112;-78
2022/07/13 04:19:36;;;;;;;3.00;2.13;;;;;;;28.05;31.51;101625.38;4967575;28;20113;-79
2022/07/13 04:22:05;;;;;;;4.10;3.70;;;;;;;28.03;31.64;101623.63;4967341;28;20118;-79
2022/07/13 04:24:38;;;;;;;3.85;2.45;;;;;;;28.04;32.07;101624.50;4978508;28;20584;-80
2022/07/13 04:27:19;;;;;;;3.30;2.17;;;;;;;28.07;31.96;101631.63;4978721;28;20035;-79
2022/07/13 04:29:54;;;;;;;3.53;1.95;;;;;;;28.03;31.81;101625.56;4992070;28;20118;-81
2022/07/13 04:32:22;;;;;;;3.00;2.05;;;;;;;28.06;31.73;101627.97;4988275;28;20046;-81
2022/07/13 04:34:50;;;;;;;3.15;2.05;;;;;;;28.06;31.85;101630.75;5007840;28;20062;-80
2022/07/13 04:37:21;;;;;;;2.58;1.85;;;;;;;28.05;31.63;101617.00;4985946;28;20441;-79
2022/07/13 04:39:50;;;;;;;3.72;2.20;;;;;;;28.07;31.55;101617.66;4970896;28;20050;-79
2022/07/13 04:42:19;;;;;;;3.25;2.10;;;;;;;28.05;31.40;101614.19;4967675;28;20310;-79
2022/07/13 04:44:50;;;;;;;3.40;2.17;;;;;;;28.04;31.50;101610.53;4992046;28;20042;-79
2022/07/13 04:47:18;;;;;;;3.58;2.17;;;;;;;28.03;32.22;101606.03;4969343;28;20038;-79
2022/07/13 04:49:47;;;;;;;3.55;2.05;;;;;;;28.02;31.81;101618.25;4955313;28;20049;-79
2022/07/13 04:52:16;;;;;;;3.20;2.05;;;;;;;28.02;31.82;101612.66;4964904;28;20437;-78
2022/07/13 04:54:45;;;;;;;3.38;2.20;;;;;;;28.02;31.75;101619.13;4974601;28;20046;-79
2022/07/13 04:57:15;;;;;;;4.20;2.25;;;;;;;28.05;31.91;101619.78;4973802;28;20510;-78
2022/07/13 04:59:43;;;;;;;3.22;1.92;;;;;;;28.03;32.20;101614.41;4969201;28;20046;-79
2022/07/13 05:02:11;;;;;;;4.20;2.10;;;;;;;28.04;31.82;101621.72;4994105;28;20070;-80
2022/07/13 05:04:39;;;;;;;3.05;2.10;;;;;;;28.06;32.02;101615.94;4972284;28;20555;-78
2022/07/13 05:07:07;;;;;;;4.15;2.45;;;;;;;28.07;32.00;101621.31;4972047;28;20138;-78
2022/07/13 05:09:35;;;;;;;3.97;2.45;;;;;;;28.07;31.82;101614.88;4970085;28;20046;-78
2022/07/13 05:12:05;;;;;;;3.85;2.38;;;;;;;28.10;31.78;101601.38;4984515;28;20466;-79
2022/07/13 05:14:36;;;;;;;3.00;1.88;;;;;;;28.12;32.08;101599.25;4988340;28;20117;-79
2022/07/13 05:17:04;;;;;;;4.32;2.30;;;;;;;28.11;31.89;101603.09;4986256;28;20054;-78
2022/07/13 05:19:33;;;;;;;3.50;1.95;;;;;;;28.12;31.88;101603.97;4971190;28;20050;-77
2022/07/13 05:22:02;;;;;;;3.65;2.00;;;;;;;28.13;31.79;101603.78;4980211;28;20527;-78
2022/07/13 05:24:43;;;;;;;4.18;2.05;;;;;;;28.14;31.88;101601.84;4961267;28;20043;-78
2022/07/13 05:27:12;;;;;;;3.55;1.90;;;;;;;28.14;31.81;101597.13;4991505;28;20133;-81
2022/07/13 05:29:42;;;;;;;3.90;2.25;;;;;;;28.17;31.77;101602.31;4970868;28;20148;-80
2022/07/13 05:32:11;;;;;;;3.60;2.10;;;;;;;28.15;31.89;101600.78;4972819;28;20047;-79
2022/07/13 05:34:39;;;;;;;2.95;1.85;;;;;;;28.16;31.87;101609.00;4974073;28;20049;-82
2022/07/13 05:37:07;;;;;;;4.15;2.10;;;;;;;28.17;31.93;101610.69;4976593;28;20553;-72
2022/07/13 05:39:35;;;;;;;4.40;2.13;;;;;;;28.19;31.83;101602.13;4983104;28;20042;-71
2022/07/13 05:42:03;;;;;;;3.28;2.00;;;;;;;28.19;31.97;101608.59;4966174;28;20042;-71
2022/07/13 05:44:32;;;;;;;4.32;2.13;;;;;;;28.21;31.99;101616.75;4987073;28;20120;-71
2022/07/13 05:47:01;;;;;;;3.65;2.25;;;;;;;28.24;32.00;101611.66;4987403;28;20046;-78
2022/07/13 05:49:29;;;;;;;4.80;2.10;;;;;;;28.24;32.03;101610.78;4970628;28;20137;-78
2022/07/13 05:51:58;;;;;;;4.60;2.72;;;;;;;28.25;32.08;101613.34;4988666;28;20070;-78
2022/07/13 05:54:27;;;;;;;3.55;2.40;;;;;;;28.26;31.68;101608.63;4974288;28;20062;-79
2022/07/13 05:57:12;;;;;;;3.95;2.20;;;;;;;28.27;32.05;101610.38;4992699;28;20048;-79
2022/07/13 05:59:40;;;;;;;3.90;2.10;;;;;;;28.29;31.88;101605.47;4989228;28;20142;-78
2022/07/13 06:02:10;;;;;;;4.22;2.30;;;;;;;28.31;31.66;101601.41;4985510;28;20038;-78
2022/07/13 06:04:39;;;;;;;3.38;2.30;;;;;;;28.31;32.39;101607.00;4993523;28;20050;-78
2022/07/13 06:07:07;;;;;;;4.25;2.22;;;;;;;28.33;32.18;101602.03;4976318;28;20505;-78
2022/07/13 06:09:35;;;;;;;3.75;2.28;;;;;;;28.34;31.98;101601.00;4985665;28;20042;-77
2022/07/13 06:12:03;;;;;;;3.50;2.05;;;;;;;28.35;32.08;101602.72;4984706;28;20436;-77
2022/07/13 06:14:32;;;;;;;3.75;2.10;;;;;;;28.37;31.97;101606.19;4988886;28;20137;-77
2022/07/13 06:17:00;;;;;;;3.38;2.20;;;;;;;28.37;31.86;101603.38;4990721;28;20419;-77
2022/07/13 06:19:30;;;;;;;4.53;2.40;;;;;;;28.42;32.02;101597.19;4973277;28;20046;-78
2022/07/13 06:21:58;;;;;;;3.95;2.00;;;;;;;28.42;31.91;101599.13;4989797;28;20046;-77
2022/07/13 06:24:26;;;;;;;4.07;2.22;;;;;;;28.44;32.26;101592.28;4989597;28;20046;-78
2022/07/13 06:26:54;;;;;;;4.13;2.10;;;;;;;28.46;32.17;101592.94;4972366;28;20156;-77
2022/07/13 06:29:22;;;;;;;4.13;2.40;;;;;;;28.48;32.23;101592.75;4988623;28;20053;-76
2022/07/13 06:31:50;;;;;;;3.67;2.00;;;;;;;28.50;32.17;101585.00;4989145;28;20235;-76
2022/07/13 06:34:18;;;;;;;3.83;2.08;;;;;;;28.52;32.26;101596.84;4984004;28;20054;-77
2022/07/13 06:36:47;;;;;;;4.13;2.10;;;;;;;28.57;32.20;101597.13;4990947;28;20498;-76
2022/07/13 06:39:15;;;;;;;5.43;2.40;;;;;;;28.56;32.13;101598.19;4990078;28;20050;-76
2022/07/13 06:41:43;;;;;;;5.00;2.33;;;;;;;28.61;32.08;101601.22;4990332;28;20390;-76
2022/07/13 06:44:12;;;;;;;3.30;1.98;;;;;;;28.63;32.29;101605.56;4989635;28;20452;-77
2022/07/13 06:46:40;;;;;;;4.22;2.47;;;;;;;28.65;32.45;101602.56;4972208;28;20042;-78
2022/07/13 06:49:08;;;;;;;3.78;2.30;;;;;;;28.68;32.55;101610.53;4970214;28;20557;-77
2022/07/13 06:51:37;;;;;;;4.55;2.10;;;;;;;28.71;32.28;101601.75;4987691;28;20078;-78
2022/07/13 06:54:11;;;;;;;4.13;2.17;;;;;;;28.77;32.60;101600.94;4968198;28;20134;-78
2022/07/13 06:56:39;;;;;;;4.88;2.50;;;;;;;28.79;32.51;101601.63;4988601;28;20089;-79
2022/07/13 06:59:07;;;;;;;4.47;2.15;;;;;;;28.83;32.64;101600.13;4970231;28;20082;-78
2022/07/13 07:01:36;;;;;;;4.78;2.53;;;;;;;28.88;32.57;101593.94;4983842;28;20520;-78
2022/07/13 07:04:04;;;;;;;4.75;2.40;;;;;;;28.93;32.29;101588.59;4972169;28;20489;-78
2022/07/13 07:06:32;;;;;;;4.03;2.50;;;;;;;28.98;32.28;101588.84;4990852;28;20553;-79
2022/07/13 07:09:00;;;;;;;5.07;2.50;;;;;;;29.03;32.67;101603.94;4970149;28;20402;-79
2022/07/13 07:11:29;;;;;;;3.30;2.17;;;;;;;29.10;32.65;101582.47;4989009;28;20105;-79
2022/07/13 07:13:58;;;;;;;3.38;2.05;;;;;;;29.15;32.35;101584.66;4986973;28;20444;-80
2022/07/13 07:16:26;;;;;;;4.82;2.40;;;;;;;29.23;32.37;101586.41;4988204;28;20030;-79
2022/07/13 07:18:54;;;;;;;4.13;2.25;;;;;;;29.32;32.17;101591.59;4987615;28;20513;-80
2022/07/13 07:21:42;;;;;;;3.33;1.90;;;;;;;29.39;32.10;101597.28;4988751;28;20662;-79
2022/07/13 07:24:10;;;;;;;4.78;2.03;;;;;;;29.46;31.80;101590.66;4988595;28;20049;-79
2022/07/13 07:26:40;;;;;;;3.55;1.90;;;;;;;29.58;31.89;101578.84;4971624;28;20042;-79
2022/07/13 07:29:08;;;;;;;3.95;2.20;;;;;;;29.61;31.70;101575.63;4970338;28;20042;-79
2022/07/13 07:31:36;;;;;;;3.50;1.88;;;;;;;29.66;31.56;101576.72;4988329;28;20066;-79
2022/07/13 07:34:04;;;;;;;3.17;1.90;;;;;;;29.73;31.42;101587.97;4992907;28;20607;-79
2022/07/13 07:36:32;;;;;;;5.03;2.08;;;;;;;29.78;31.23;101582.56;4987994;28;20054;-79
2022/07/13 07:39:00;;;;;;;3.88;1.90;;;;;;;29.83;31.13;101582.78;4989379;28;20042;-80
2022/07/13 07:41:28;;;;;;;4.28;1.85;;;;;;;29.88;31.30;101574.66;4985732;28;20038;-79
2022/07/13 07:43:59;;;;;;;3.15;1.63;;;;;;;29.96;31.19;101574.47;4988923;28;20210;-79
2022/07/13 07:46:27;;;;;;;4.38;2.00;;;;;;;30.00;30.83;101577.69;4970529;28;20046;-81
2022/07/13 07:48:56;;;;;;;4.20;2.03;;;;;;;30.06;30.94;101571.28;4988318;28;20046;-79
2022/07/13 07:51:24;;;;;;;4.07;1.90;;;;;;;30.10;31.00;101573.41;4972703;28;20066;-81
2022/07/13 07:54:12;;;;;;;4.05;1.73;;;;;;;30.15;30.79;101576.44;4983598;28;20073;-81
2022/07/13 07:56:41;;;;;;;3.47;1.73;;;;;;;30.22;30.99;101580.13;4990218;28;20043;-81
2022/07/13 07:59:10;;;;;;;3.72;2.17;;;;;;;30.31;30.70;101574.31;4987619;28;20100;-80
2022/07/13 08:01:38;;;;;;;3.70;1.90;;;;;;;30.35;30.94;101578.41;4986882;28;20085;-78
2022/07/13 08:04:07;;;;;;;3.53;1.90;;;;;;;30.41;30.71;101574.72;4995311;28;20058;-79
2022/07/13 08:06:35;;;;;;;3.30;2.10;;;;;;;30.47;30.61;101571.09;4989177;28;20496;-79
2022/07/13 08:09:04;;;;;;;4.43;2.05;;;;;;;30.55;30.44;101568.97;4992250;28;20048;-80
2022/07/13 08:11:32;;;;;;;2.50;1.67;;;;;;;30.63;30.51;101565.94;4987830;28;20042;-80
2022/07/13 08:14:00;;;;;;;3.08;1.63;;;;;;;30.74;30.34;101563.53;4983702;28;20448;-79
2022/07/13 08:16:29;;;;;;;3.55;1.90;;;;;;;30.87;29.58;101567.19;4981826;28;20416;-79
2022/07/13 08:18:57;;;;;;;3.00;1.67;;;;;;;30.97;29.47;101566.72;4988619;28;20042;-79
2022/07/13 08:21:46;;;;;;;2.72;1.52;;;;;;;31.07;29.07;101564.34;4984287;28;20552;-78
2022/07/13 08:24:14;;;;;;;4.07;1.60;;;;;;;31.18;28.44;101558.06;4988161;28;20386;-79
2022/07/13 08:26:44;;;;;;;3.58;1.73;;;;;;;31.27;27.83;101567.09;4956768;28;20054;-79
2022/07/13 08:29:13;;;;;;;3.53;1.70;;;;;;;31.36;27.84;101574.19;4987864;28;20120;-79
2022/07/13 08:31:43;;;;;;;3.30;2.10;;;;;;;31.44;28.01;101564.66;4983728;28;20355;-79
2022/07/13 08:39:42;;;;;;;4.47;1.70;;;;;;;31.60;27.19;101552.91;4987569;28;20141;-79
2022/07/13 08:42:13;;;;;;;2.40;1.50;;;;;;;31.70;27.06;101553.34;4989511;28;20401;-79
2022/07/13 08:44:41;;;;;;;3.30;1.70;;;;;;;31.71;26.89;101550.28;4968681;28;20058;-82
2022/07/13 08:47:11;;;;;;;4.70;1.92;;;;;;;31.83;25.98;101558.88;4990448;28;20390;-80
2022/07/13 08:49:40;;;;;;;3.78;1.73;;;;;;;31.87;26.43;101557.34;4981857;28;20046;-81
2022/07/13 08:52:09;;;;;;;3.83;1.80;;;;;;;31.93;26.08;101556.44;4989622;28;20034;-80
2022/07/13 08:54:37;;;;;;;5.00;2.00;;;;;;;32.00;25.86;101551.63;4987366;28;20052;-80
2022/07/13 08:57:05;;;;;;;2.60;1.92;;;;;;;32.07;25.91;101552.44;4987755;28;20514;-80
2022/07/13 08:59:33;;;;;;;3.33;1.83;;;;;;;32.16;25.54;101557.81;4966930;28;20061;-80
2022/07/13 09:06:03;;;;;;;3.58;1.88;;;;;;;32.31;25.64;101562.00;4981354;28;20601;-81
2022/07/13 09:08:31;;;;;;;2.90;1.60;;;;;;;32.38;25.68;101559.13;4973686;28;20103;-80
2022/07/13 09:11:00;;;;;;;2.50;1.70;;;;;;;32.49;25.79;101553.63;4990196;28;20041;-79
2022/07/13 09:13:38;;;;;;;3.20;1.73;;;;;;;32.62;24.89;101563.03;4993493;28;20026;-79
2022/07/13 09:16:16;;;;;;;3.08;1.80;;;;;;;32.72;24.76;101554.97;4970643;28;20042;-80
2022/07/13 09:18:46;;;;;;;3.50;1.83;;;;;;;32.78;24.99;101556.88;4989665;28;20042;-80
2022/07/13 09:21:16;;;;;;;3.30;1.70;;;;;;;32.90;24.66;101557.81;4994316;28;20042;-82
2022/07/13 09:23:47;;;;;;;3.25;1.92;;;;;;;32.96;24.61;101553.19;4957082;28;20042;-83
2022/07/13 09:26:16;;;;;;;4.05;2.08;;;;;;;33.00;24.28;101549.69;4985202;28;20043;-82
2022/07/13 09:28:45;;;;;;;3.55;2.05;;;;;;;33.10;23.96;101555.66;4990095;28;20528;-84
2022/07/13 09:31:14;;;;;;;4.03;2.20;;;;;;;33.17;23.81;101553.63;4996952;28;20370;-84
2022/07/13 09:33:44;;;;;;;2.58;1.70;;;;;;;33.23;23.63;101535.81;4991048;28;20043;-80
2022/07/13 09:36:14;;;;;;;2.78;1.83;;;;;;;33.29;23.83;101545.25;4975641;28;20081;-80
2022/07/13 09:38:45;;;;;;;3.60;2.30;;;;;;;33.35;23.40;101552.78;4966819;28;20387;-82
2022/07/13 09:41:19;;;;;;;3.40;2.13;;;;;;;33.38;23.18;101549.47;4991872;28;20042;-82
2022/07/13 09:46:54;;;;;;;3.40;2.03;;;;;;;33.47;23.18;101555.63;4989171;28;20444;-83
2022/07/13 09:49:31;;;;;;;3.47;2.17;;;;;;;33.50;23.36;101563.63;4990873;28;20133;-82
2022/07/13 09:52:00;;;;;;;3.38;2.03;;;;;;;33.49;23.15;101557.13;4992586;28;20475;-82
2022/07/13 09:54:31;;;;;;;4.25;1.70;;;;;;;33.53;23.22;101563.13;4990741;28;20100;-82
2022/07/13 09:57:00;;;;;;;3.90;1.90;;;;;;;33.53;23.09;101565.94;4993129;28;20137;-82
2022/07/13 09:59:29;;;;;;;3.10;1.90;;;;;;;33.54;23.41;101567.66;4968668;28;20508;-82
2022/07/13 10:01:58;;;;;;;4.07;2.13;;;;;;;33.53;23.04;101561.19;4988401;28;20576;-83
2022/07/13 10:04:26;;;;;;;3.42;1.80;;;;;;;33.54;23.06;101559.22;4984615;28;20046;-81
2022/07/13 10:07:16;;;;;;;3.28;1.90;;;;;;;33.54;23.22;101576.13;4968089;28;20035;-84
2022/07/13 10:09:46;;;;;;;3.85;2.00;;;;;;;33.54;22.99;101571.34;4965562;28;20064;-84
2022/07/13 10:12:14;;;;;;;3.53;1.73;;;;;;;33.51;22.88;101566.22;4998857;28;20097;-83
2022/07/13 10:14:43;;;;;;;2.80;1.80;;;;;;;33.49;22.95;101567.53;4989712;28;20133;-83
2022/07/13 10:17:20;;;;;;;3.28;1.95;;;;;;;33.48;22.90;101574.25;4991017;28;20472;-84
2022/07/13 10:19:52;;;;;;;2.92;1.70;;;;;;;33.47;23.23;101569.72;4970250;28;20074;-82
2022/07/13 10:22:24;;;;;;;2.85;1.75;;;;;;;33.43;23.05;101569.34;4988808;28;20104;-69
2022/07/13 10:25:00;;;;;;;6.03;2.78;;;;;;;33.41;23.14;101565.91;4990171;28;20034;-69
2022/07/13 10:27:29;;;;;;;4.88;2.13;;;;;;;33.37;23.31;101575.91;4991455;28;20049;-69
2022/07/13 10:30:00;;;;;;;4.85;2.22;;;;;;;33.34;23.40;101570.75;4986779;28;20038;-69
2022/07/13 10:32:30;;;;;;;4.10;2.20;;;;;;;33.31;22.93;101576.00;4991485;28;20039;-69
2022/07/13 10:35:09;;;;;;;3.50;2.05;;;;;;;33.27;23.19;101578.44;4989486;28;20515;-70
2022/07/13 10:38:15;;;;;;;6.82;3.25;;;;;;;33.23;23.65;101580.84;4992113;28;20038;-69
2022/07/13 10:40:44;;;;;;;4.93;2.72;;;;;;;33.20;23.66;101581.25;4971038;28;20512;-70
2022/07/13 10:43:17;;;;;;;5.40;2.72;;;;;;;33.20;23.56;101581.25;4969232;28;20537;-69
2022/07/13 10:45:51;;;;;;;4.47;2.50;;;;;;;33.18;23.82;101575.03;4967118;28;20043;-86
2022/07/13 10:48:48;;;;;;;3.53;2.03;;;;;;;33.13;23.63;101579.63;4969792;28;20486;-88
2022/07/13 10:51:23;;;;;;;3.08;1.80;;;;;;;33.12;23.67;101572.28;4969246;28;20058;-86
2022/07/13 10:54:10;;;;;;;3.65;1.75;;;;;;;33.08;23.85;101569.09;4982393;28;20054;-86
2022/07/13 10:57:13;;;;;;;3.38;1.70;;;;;;;33.04;23.97;101572.59;4932529;29;20580;-86
2022/07/13 10:59:49;;;;;;;2.78;1.90;;;;;;;33.06;24.38;101565.63;4927907;29;20043;-86
2022/07/13 11:02:46;;;;;;;3.17;1.90;;;;;;;33.02;24.72;101560.72;4915953;29;20044;-86
2022/07/13 11:05:17;;;;;;;2.92;1.80;;;;;;;33.03;24.30;101568.03;4927301;29;20060;-85
2022/07/13 11:07:47;;;;;;;2.33;1.58;;;;;;;33.05;24.71;101565.88;4930880;29;20115;-86
2022/07/13 11:10:18;;;;;;;3.30;1.73;;;;;;;33.08;24.81;101571.03;4945088;28;20123;-87
2022/07/13 11:13:00;;;;;;;3.72;1.73;;;;;;;33.10;24.81;101566.03;4949248;29;20134;-85
2022/07/13 11:15:47;;;;;;;2.83;1.67;;;;;;;33.12;24.69;101569.47;4945651;28;20047;-87
2022/07/13 11:18:28;;;;;;;2.60;1.73;;;;;;;33.19;24.80;101568.28;4941604;28;20047;-87
2022/07/13 11:20:59;;;;;;;3.40;1.90;;;;;;;33.20;24.95;101569.16;4948873;28;20067;-85
2022/07/13 11:26:22;;;;;;;2.42;1.60;;;;;;;33.37;24.55;101567.47;4967337;28;20069;-86
2022/07/13 11:29:05;;;;;;;3.00;1.80;;;;;;;33.48;24.40;101563.00;4980206;28;20145;-85
2022/07/13 11:31:37;;;;;;;3.00;1.70;;;;;;;33.51;24.71;101565.34;4968088;28;20033;-88
2022/07/13 11:34:06;;;;;;;2.58;1.42;;;;;;;33.61;24.76;101560.84;4961290;28;20054;-87
2022/07/13 11:36:34;;;;;;;2.42;1.50;;;;;;;33.70;24.71;101549.25;4966201;28;20047;-87
2022/07/13 11:39:02;;;;;;;2.28;1.40;;;;;;;33.80;24.88;101546.75;4992068;28;20044;-86
2022/07/13 11:41:31;;;;;;;3.75;1.42;;;;;;;33.88;24.48;101552.06;4970875;28;20042;-81
2022/07/13 11:44:00;;;;;;;3.60;1.40;;;;;;;33.99;24.05;101554.06;4968978;28;20135;-73
2022/07/13 11:46:29;;;;;;;2.90;1.70;;;;;;;34.06;24.22;101556.78;4965713;28;20567;-76
2022/07/13 11:49:01;;;;;;;2.45;1.45;;;;;;;34.15;23.64;101541.25;4967260;28;20145;-76
2022/07/13 11:51:30;;;;;;;2.50;1.27;;;;;;;34.18;23.87;101540.78;4967308;28;20034;-76
2022/07/13 11:54:07;;;;;;;3.03;1.50;;;;;;;34.26;23.33;101538.47;4967565;28;20043;-76